ADDS METAR Data INFO
IDs: Format: Raw Decoded Include TAF

Data at: 2351 UTC 23 Feb 2018

KSNA 232253Z 28009G19KT 10SM FEW060 14/M02 A3015 RMK AO2 SLP209 T01441017
KSNA 232153Z 27012G17KT 10SM FEW030 FEW055 14/M03 A3016 RMK AO2 SLP211 T01441028
KSNA 232053Z 24011G18KT 10SM FEW032 FEW050 14/M02 A3017 RMK AO2 SLP216 T01391022 58017
KSNA 231953Z 30007G20KT 240V340 10SM FEW050 14/M08 A3019 RMK AO2 SLP224 T01441083
KSNA 231853Z 30014G17KT 10SM FEW050 13/M09 A3021 RMK AO2 SLP228 T01331089
KSNA 231753Z 32007G17KT 280V350 10SM FEW048 12/M08 A3022 RMK AO2 SLP232 TCU DSNT N T01221078 10128 20094 51012
KSNA 231653Z 32011G18KT 10SM FEW042 FEW048 11/M06 A3022 RMK AO2 SLP231 T01111061
KSNA 231553Z 29007KT 10SM FEW042 FEW046 10/M02 A3020 RMK AO2 SLP224 T01001022
KSNA 231453Z VRB04KT 10SM FEW045 09/01 A3018 RMK AO2 SLP220 T00940006 53006
KSNA 231353Z 27005KT 10SM FEW026 FEW047 11/01 A3017 RMK AO2 SLP215 T01060006
KSNA 231253Z AUTO 29004KT 10SM CLR 11/03 A3017 RMK AO2 SLP215 T01060028
KSNA 231153Z AUTO 00000KT 10SM SCT035 11/04 A3016 RMK AO2 SLP214 T01060039 10122 20106 56003
KSNA 231053Z AUTO VRB06KT 10SM CLR 11/04 A3017 RMK AO2 SLP215 T01060039
KSNA 230953Z AUTO 27005KT 10SM CLR 11/04 A3017 RMK AO2 SLP215 T01110044
KSNA 230853Z AUTO 24005KT 10SM CLR 12/05 A3017 RMK AO2 SLP217 T01170050 58007
KSNA 230753Z AUTO 17006KT 10SM SCT034 12/05 A3018 RMK AO2 SLP219 T01170050 401670072
KSNA 230653Z 25004KT 10SM SCT042 12/05 A3020 RMK AO2 SLP225 LAST T01170050
KSNA 230553Z 22008KT 10SM SCT031 BKN050 12/06 A3019 RMK AO2 SLP224 T01220061 10150 20122 53005
KSNA 230453Z 24007KT 10SM BKN037 BKN050 13/06 A3019 RMK AO2 SLP223 T01280056
KSNA 230353Z 22004KT 10SM FEW032 BKN055 13/06 A3018 RMK AO2 SLP219 T01280056
KSNA 230253Z 24003KT 10SM FEW032 13/06 A3018 RMK AO2 SLP220 T01280056 53002
KSNA 230153Z 25005KT 10SM FEW032 13/06 A3017 RMK AO2 SLP217 T01330056
KSNA 230053Z 25009KT 220V290 10SM FEW039 14/05 A3017 RMK AO2 SLP217 T01390050
KSNA 222353Z 24009KT 10SM FEW039 14/04 A3018 RMK AO2 SLP218 T01440044 10167 20139 56012
KSNA 222253Z VRB06KT 10SM FEW048 16/04 A3019 RMK AO2 SLP221 T01560044
KSNA 222153Z 24009G17KT 200V270 10SM FEW048 FEW055 16/03 A3019 RMK AO2 SLP223 T01560033
KSNA 222053Z 23009KT 10SM FEW040 FEW055 SCT065 16/03 A3021 RMK AO2 SLP230 T01610028 58012
KSNA 221953Z 22011KT 10SM SCT040 BKN055 BKN065 15/04 A3023 RMK AO2 SLP238 T01500044
KSNA 221853Z 20012KT 10SM FEW031 BKN042 16/05 A3025 RMK AO2 SLP244 T01560050
KSNA 221753Z 19012KT 10SM BKN045 BKN060 15/06 A3025 RMK AO2 SLP242 60000 T01500061 10150 20083 51014
KSNA 221653Z 18006KT 10SM SCT045 SCT060 14/06 A3024 RMK AO2 SLP240 T01390056
KSNA 221553Z 12007KT 10SM SCT045 BKN060 11/04 A3022 RMK AO2 SLP234 T01110039
KSNA 221453Z 11007KT 10SM SCT065 09/04 A3021 RMK AO2 RAB1359E10 SLP228 P0000 60000 T00940039 53007
KSNA 221353Z COR 00000KT 10SM SCT065 09/03 A3019 RMK AO2 SLP224 T00890033
KSNA 221253Z AUTO 06003KT 10SM FEW035 SCT050 SCT060 09/01 A3019 RMK AO2 SLP221 T00890011
KSNA 221153Z AUTO 00000KT 10SM BKN034 09/01 A3018 RMK AO2 SLP220 T00890011 10100 20072 55000